Time;durP1;ratioP1;P1;durP2;ratioP2;P2;SDS_P1;SDS_P2;PMS_P1;PMS_P2;Temp;Humidity;BMP_temperature;BMP_pressure;BME280_temperature;BME280_humidity;BME280_pressure;Samples;Min_cycle;Max_cycle;Signal;HPM_P1;HPM_P2
2021/05/07 00:01:00;;;;;;;7.63;5.43;;;;;;;8.47;62.19;99149.83;128002;1100;101010;-85
2021/05/07 00:03:46;;;;;;;9.50;5.20;;;;;;;8.50;62.08;99156.65;128127;1098;100836;-84
2021/05/07 00:06:34;;;;;;;8.57;5.27;;;;;;;8.50;62.40;99160.09;128129;1098;101241;-85
2021/05/07 00:09:21;;;;;;;7.17;5.07;;;;;;;8.51;62.04;99155.74;128254;1098;100602;-85
2021/05/07 00:12:09;;;;;;;7.18;5.38;;;;;;;8.53;62.49;99157.36;128172;1098;101203;-85
2021/05/07 00:14:56;;;;;;;9.83;5.03;;;;;;;8.54;62.52;99156.45;128235;1098;100782;-85
2021/05/07 00:17:43;;;;;;;8.70;5.77;;;;;;;8.58;63.44;99158.02;128028;1098;100792;-85
2021/05/07 00:20:29;;;;;;;;;;;;;;;8.61;63.88;99147.48;128040;1098;101128;-84
2021/05/07 00:23:16;;;;;;;9.13;6.27;;;;;;;8.59;63.43;99133.70;128262;1098;100763;-85
2021/05/07 00:26:03;;;;;;;9.27;6.20;;;;;;;8.55;63.52;99132.16;128032;1098;101566;-85
2021/05/07 00:28:50;;;;;;;;;;;;;;;8.49;63.21;99132.42;128033;1098;100777;-85
2021/05/07 00:31:36;;;;;;;11.00;7.40;;;;;;;8.40;63.39;99128.42;128233;1098;100764;-85
2021/05/07 00:34:23;;;;;;;11.53;7.07;;;;;;;8.36;62.89;99116.48;128054;1098;100823;-85
2021/05/07 00:37:09;;;;;;;10.03;7.10;;;;;;;8.33;63.11;99115.73;128062;1098;101051;-85
2021/05/07 00:39:56;;;;;;;10.05;7.08;;;;;;;8.26;63.46;99115.16;128050;1098;100701;-85
2021/05/07 00:42:43;;;;;;;13.13;7.70;;;;;;;8.23;63.43;99110.05;128114;1098;101263;-85
2021/05/07 00:45:31;;;;;;;11.90;7.10;;;;;;;8.20;63.52;99104.98;128041;1098;100814;-85
2021/05/07 00:48:18;;;;;;;9.95;7.40;;;;;;;8.16;63.51;99106.88;128036;1098;100858;-85
2021/05/07 00:51:05;;;;;;;9.58;7.30;;;;;;;8.14;63.67;99102.65;128055;1098;100742;-85
2021/05/07 00:53:52;;;;;;;10.30;7.27;;;;;;;8.13;64.02;99100.97;128209;1098;101575;-85
2021/05/07 00:56:38;;;;;;;11.20;7.23;;;;;;;8.09;63.50;99096.81;128014;1099;100736;-85
2021/05/07 00:59:25;;;;;;;9.87;7.50;;;;;;;8.11;63.75;99097.59;128246;1098;100760;-85
2021/05/07 01:02:11;;;;;;;11.17;7.97;;;;;;;8.13;63.66;99098.36;128014;1099;100770;-85
2021/05/07 01:04:58;;;;;;;13.18;8.65;;;;;;;8.15;63.28;99091.35;127982;1099;100733;-85
2021/05/07 01:07:45;;;;;;;11.88;8.28;;;;;;;8.17;63.28;99084.34;128015;1099;101977;-85
2021/05/07 01:10:35;;;;;;;14.23;7.70;;;;;;;8.20;63.67;99089.41;128026;1098;100728;-85
2021/05/07 01:13:23;;;;;;;12.60;8.37;;;;;;;8.21;63.54;99091.09;128085;1098;101029;-85
2021/05/07 01:16:13;;;;;;;11.50;8.60;;;;;;;8.23;63.44;99089.27;128262;1098;100702;-83
2021/05/07 01:19:01;;;;;;;;;;;;;;;8.24;63.75;99090.96;128072;1098;101058;-83
2021/05/07 01:21:49;;;;;;;11.63;9.03;;;;;;;8.23;63.36;99085.83;128237;1098;101424;-83
2021/05/07 01:24:36;;;;;;;;;;;;;;;8.23;63.49;99083.23;128015;1098;100735;-83
2021/05/07 01:27:23;;;;;;;14.47;9.47;;;;;;;8.22;63.77;99072.00;128071;1098;101008;-83
2021/05/07 01:30:18;;;;;;;15.03;10.63;;;;;;;8.23;63.80;99067.66;128249;1098;102141;-84
2021/05/07 01:33:05;;;;;;;16.30;9.87;;;;;;;8.22;63.46;99061.61;128273;1098;100758;-84
2021/05/07 01:35:53;;;;;;;16.67;11.20;;;;;;;8.20;63.68;99060.83;128127;1098;101837;-84
2021/05/07 01:38:40;;;;;;;16.37;10.30;;;;;;;8.19;63.79;99064.34;128029;1098;101066;-83
2021/05/07 01:41:27;;;;;;;16.13;10.60;;;;;;;8.17;64.08;99068.76;128248;1098;100798;-83
2021/05/07 01:44:14;;;;;;;14.25;10.00;;;;;;;8.16;64.08;99067.91;128046;1098;100777;-83
2021/05/07 01:47:00;;;;;;;12.97;9.17;;;;;;;8.15;63.90;99071.42;128055;1099;100763;-83
2021/05/07 01:49:48;;;;;;;;;;;;;;;8.15;64.17;99073.17;128079;1098;101065;-84
2021/05/07 01:52:35;;;;;;;13.27;9.40;;;;;;;8.15;64.64;99073.17;128201;1098;101148;-84
2021/05/07 01:55:25;;;;;;;12.70;9.43;;;;;;;8.17;64.49;99073.95;128084;1098;100829;-84
2021/05/07 01:58:19;;;;;;;14.83;10.40;;;;;;;8.21;64.96;99074.66;128234;1098;100827;-84
2021/05/07 02:01:09;;;;;;;14.93;10.97;;;;;;;8.23;65.06;99071.09;128112;1098;100760;-84
2021/05/07 02:03:57;;;;;;;16.55;11.45;;;;;;;8.25;64.71;99060.64;128251;1097;101545;-84
2021/05/07 02:06:53;;;;;;;18.10;11.87;;;;;;;8.26;64.85;99055.41;127997;1098;100866;-84
2021/05/07 02:09:40;;;;;;;14.47;11.47;;;;;;;8.28;64.87;99050.98;128081;1097;101075;-84
2021/05/07 02:12:27;;;;;;;15.30;11.37;;;;;;;8.28;65.56;99045.80;128033;1098;101262;-84
2021/05/07 02:15:15;;;;;;;14.90;12.23;;;;;;;8.27;65.47;99023.33;128126;1098;100753;-84
2021/05/07 02:18:07;;;;;;;19.10;13.13;;;;;;;8.26;65.49;99021.64;128095;1098;101831;-83
2021/05/07 02:20:56;;;;;;;19.87;13.60;;;;;;;8.21;65.49;99015.77;128018;1098;100917;-83
2021/05/07 02:23:46;;;;;;;16.43;12.23;;;;;;;8.15;65.89;99013.44;128030;1098;100750;-84
2021/05/07 02:26:33;;;;;;;18.20;12.75;;;;;;;8.09;65.79;99011.11;128061;1098;100751;-84
2021/05/07 02:29:22;;;;;;;18.57;12.70;;;;;;;8.04;65.54;99002.64;128113;1098;100778;-84
2021/05/07 02:32:09;;;;;;;18.43;13.60;;;;;;;7.98;65.60;99005.50;128037;1098;101316;-84
2021/05/07 02:34:56;;;;;;;18.70;13.15;;;;;;;7.94;65.96;99004.80;128185;1098;101165;-83
2021/05/07 02:37:43;;;;;;;17.83;12.50;;;;;;;7.91;65.34;99004.08;128237;1098;100635;-84
2021/05/07 02:40:30;;;;;;;16.38;12.50;;;;;;;7.91;66.17;98996.30;128076;1098;100778;-84
2021/05/07 02:43:17;;;;;;;17.83;12.23;;;;;;;7.88;66.01;98995.48;128225;1098;100740;-84
2021/05/07 02:46:06;;;;;;;17.40;12.63;;;;;;;7.89;66.31;98997.17;128223;1098;102048;-84
2021/05/07 02:48:53;;;;;;;16.80;12.25;;;;;;;7.90;66.83;98990.26;128250;1098;101058;-83
2021/05/07 02:51:40;;;;;;;17.45;11.78;;;;;;;7.93;66.88;98987.53;128052;1098;100647;-84
2021/05/07 02:54:34;;;;;;;20.00;13.80;;;;;;;7.96;67.10;98986.55;128074;1099;100761;-84
2021/05/07 02:57:21;;;;;;;21.30;14.33;;;;;;;7.98;67.67;98984.73;128071;1098;101051;-84
2021/05/07 03:00:08;;;;;;;20.87;14.53;;;;;;;7.99;67.52;98976.03;128019;1098;100803;-84
2021/05/07 03:02:56;;;;;;;20.20;14.75;;;;;;;7.98;67.13;98967.41;128222;1098;100890;-85
2021/05/07 03:05:43;;;;;;;19.13;13.97;;;;;;;7.99;67.64;98966.50;128000;1100;100906;-84
2021/05/07 03:08:30;;;;;;;18.73;13.73;;;;;;;7.97;67.44;98962.28;128047;1098;100854;-84
2021/05/07 03:11:17;;;;;;;17.08;13.45;;;;;;;7.94;66.99;98963.26;128066;1098;100766;-84
2021/05/07 03:14:04;;;;;;;18.87;13.83;;;;;;;7.92;67.42;98954.69;128039;1098;101955;-84
2021/05/07 03:16:51;;;;;;;18.00;13.43;;;;;;;7.89;68.09;98953.04;128210;1098;100671;-83
2021/05/07 03:19:39;;;;;;;20.73;14.37;;;;;;;7.87;68.12;98961.80;128285;1098;100752;-83
2021/05/07 03:22:25;;;;;;;17.63;12.98;;;;;;;7.81;67.32;98955.13;128048;1098;100632;-84
2021/05/07 03:25:14;;;;;;;;;;;;;;;7.75;67.86;98957.98;128100;1098;101934;-83
2021/05/07 03:28:00;;;;;;;18.13;12.63;;;;;;;7.70;68.06;98961.66;128106;1098;100798;-83
2021/05/07 03:30:48;;;;;;;19.20;13.60;;;;;;;7.62;68.15;98954.20;128036;1098;100885;-83
2021/05/07 03:33:36;;;;;;;19.50;13.20;;;;;;;7.57;68.61;98950.95;128056;1098;101185;-83
2021/05/07 03:36:23;;;;;;;19.67;13.50;;;;;;;7.52;68.64;98950.27;128030;1098;100727;-83
2021/05/07 03:39:10;;;;;;;21.53;14.50;;;;;;;7.50;69.14;98950.33;128223;1098;100882;-84
2021/05/07 03:41:57;;;;;;;19.97;13.47;;;;;;;7.50;69.17;98946.90;128053;1098;100851;-84
2021/05/07 03:44:43;;;;;;;18.80;14.07;;;;;;;7.50;69.11;98946.90;128009;1098;100853;-84
2021/05/07 03:47:29;;;;;;;20.00;14.73;;;;;;;7.49;69.36;98940.86;128210;1098;100734;-84
2021/05/07 03:50:16;;;;;;;19.93;13.83;;;;;;;7.48;69.40;98939.17;128064;1098;100834;-84
2021/05/07 03:53:02;;;;;;;19.13;13.70;;;;;;;7.50;69.54;98946.90;128239;1098;101068;-84
2021/05/07 03:55:50;;;;;;;19.40;12.77;;;;;;;7.49;69.76;98946.05;128054;1098;101856;-84
2021/05/07 03:58:37;;;;;;;18.27;12.57;;;;;;;7.42;69.92;98944.63;128047;1098;100826;-84
2021/05/07 04:01:26;;;;;;;17.03;12.07;;;;;;;7.33;69.88;98946.72;128029;1098;100816;-84
2021/05/07 04:04:14;;;;;;;18.20;13.23;;;;;;;7.21;70.60;98948.91;128081;1098;101101;-84
2021/05/07 04:07:00;;;;;;;20.83;13.50;;;;;;;7.13;70.41;98948.34;128031;1098;100885;-84
2021/05/07 04:09:59;;;;;;;18.98;13.15;;;;;;;7.08;70.55;98947.69;128047;1098;101541;-84
2021/05/07 04:15:36;;;;;;;16.93;12.77;;;;;;;7.04;71.22;98948.72;128038;1099;101228;-84
2021/05/07 04:18:22;;;;;;;19.23;13.60;;;;;;;7.02;71.23;98947.94;128025;1098;100798;-84
2021/05/07 04:21:09;;;;;;;21.03;13.87;;;;;;;7.01;71.65;98951.44;128056;1098;100740;-84
2021/05/07 04:23:56;;;;;;;19.48;13.80;;;;;;;7.01;71.35;98956.63;128038;1098;101087;-84
2021/05/07 04:26:42;;;;;;;21.07;14.40;;;;;;;7.00;71.97;98952.31;128002;1098;100719;-83
2021/05/07 04:29:29;;;;;;;19.17;13.83;;;;;;;7.02;71.84;98944.50;128025;1098;101059;-83
2021/05/07 04:32:15;;;;;;;18.83;13.07;;;;;;;7.04;71.89;98947.88;128063;1098;100767;-83
2021/05/07 04:35:04;;;;;;;18.90;14.27;;;;;;;7.06;72.38;98936.54;128224;1098;100731;-83
2021/05/07 04:37:50;;;;;;;19.93;14.38;;;;;;;7.08;72.55;98937.32;128070;1098;101441;-85
2021/05/07 04:40:37;;;;;;;20.63;15.57;;;;;;;7.09;72.37;98936.42;128009;1098;101017;-83
2021/05/07 04:43:23;;;;;;;23.23;15.25;;;;;;;7.11;72.56;98934.61;128046;1098;100793;-83
2021/05/07 04:46:10;;;;;;;20.80;14.90;;;;;;;7.12;72.56;98936.30;128201;1098;100705;-83
2021/05/07 04:48:57;;;;;;;21.43;15.15;;;;;;;7.14;72.96;98939.66;128050;1098;101082;-83
2021/05/07 04:51:44;;;;;;;20.65;15.28;;;;;;;7.15;72.85;98937.92;128077;1098;102616;-83
2021/05/07 04:54:33;;;;;;;21.00;15.77;;;;;;;7.17;72.44;98939.54;128227;1098;101119;-83
2021/05/07 04:57:20;;;;;;;19.00;14.87;;;;;;;7.19;73.09;98942.10;128105;1098;100837;-83
2021/05/07 05:00:07;;;;;;;17.93;14.20;;;;;;;7.19;72.84;98934.33;128032;1099;101032;-84
2021/05/07 05:02:54;;;;;;;21.93;15.70;;;;;;;7.21;73.27;98933.36;128051;1098;100727;-83
2021/05/07 05:05:40;;;;;;;22.80;16.43;;;;;;;7.24;73.29;98942.76;128060;1098;101261;-83
2021/05/07 05:08:28;;;;;;;20.70;16.27;;;;;;;7.25;73.85;98942.70;128047;1098;100744;-83
2021/05/07 05:11:15;;;;;;;20.33;16.73;;;;;;;7.27;73.67;98940.04;128234;1098;101000;-83
2021/05/07 05:14:02;;;;;;;22.17;16.17;;;;;;;7.28;73.64;98945.16;128264;1098;101469;-83
2021/05/07 05:16:49;;;;;;;19.53;14.87;;;;;;;7.25;74.23;98934.91;128251;1098;101032;-84
2021/05/07 05:19:36;;;;;;;21.65;16.05;;;;;;;7.20;74.27;98943.79;128198;1098;101624;-84
2021/05/07 05:22:22;;;;;;;19.63;15.93;;;;;;;7.17;74.43;98936.95;128208;1098;100715;-83
2021/05/07 05:25:10;;;;;;;;;;;;;;;7.11;75.45;98939.79;128066;1098;100839;-84
2021/05/07 05:27:57;;;;;;;25.20;16.50;;;;;;;7.04;75.61;98933.17;128229;1098;100788;-83
2021/05/07 05:30:44;;;;;;;18.10;13.97;;;;;;;7.04;75.93;98940.09;128237;1098;100814;-83
2021/05/07 05:33:30;;;;;;;18.28;13.78;;;;;;;7.03;75.71;98934.07;128055;1098;100823;-83
2021/05/07 05:36:17;;;;;;;24.90;17.05;;;;;;;7.04;76.72;98937.51;128162;1098;100988;-85
2021/05/07 05:39:04;;;;;;;18.93;14.75;;;;;;;7.01;76.32;98935.04;128147;1098;100727;-83
2021/05/07 05:41:51;;;;;;;19.55;12.48;;;;;;;7.00;76.82;98935.91;128028;1098;100700;-83
2021/05/07 05:44:38;;;;;;;18.53;13.70;;;;;;;6.98;76.85;98934.23;128057;1098;100856;-85
2021/05/07 05:47:24;;;;;;;19.30;13.47;;;;;;;6.97;77.03;98929.95;128241;1098;103663;-83
2021/05/07 05:50:16;;;;;;;18.03;13.23;;;;;;;7.00;77.75;98934.16;128034;1098;100956;-83
2021/05/07 05:53:03;;;;;;;19.27;12.17;;;;;;;7.01;76.99;98927.27;128040;1098;100805;-83
2021/05/07 05:55:49;;;;;;;;;;;;;;;7.03;77.43;98944.44;128240;1098;100724;-83
2021/05/07 05:58:36;;;;;;;12.57;8.40;;;;;;;7.02;77.67;98934.13;128039;1098;100711;-85
2021/05/07 06:01:22;;;;;;;11.60;7.47;;;;;;;7.01;77.43;98927.27;128247;1098;103418;-85
2021/05/07 06:04:09;;;;;;;7.90;6.77;;;;;;;7.03;77.11;98935.82;128219;1098;100834;-83
2021/05/07 06:06:55;;;;;;;11.10;7.43;;;;;;;7.03;76.51;98934.07;128052;1098;101010;-84
2021/05/07 06:09:42;;;;;;;8.40;6.47;;;;;;;7.05;76.41;98940.04;128022;1098;100694;-83
2021/05/07 06:12:29;;;;;;;9.48;6.70;;;;;;;7.07;76.55;98935.64;128275;1098;100702;-83
2021/05/07 06:15:17;;;;;;;11.17;6.63;;;;;;;7.11;76.53;98932.02;128224;1098;101612;-85
2021/05/07 06:18:05;;;;;;;9.93;7.00;;;;;;;7.19;76.49;98923.95;128167;1098;101013;-83
2021/05/07 06:20:52;;;;;;;11.40;7.63;;;;;;;7.26;76.26;98931.41;128252;1098;100690;-83
2021/05/07 06:23:39;;;;;;;10.08;6.98;;;;;;;7.31;76.37;98922.60;128130;1098;100996;-83
2021/05/07 06:26:26;;;;;;;11.48;7.20;;;;;;;7.33;76.38;98923.38;128284;1098;100727;-83
2021/05/07 06:29:12;;;;;;;11.40;8.33;;;;;;;7.39;76.44;98933.53;128152;1098;100792;-83
2021/05/07 06:31:59;;;;;;;9.57;7.77;;;;;;;7.47;76.04;98923.67;128021;1098;100832;-83
2021/05/07 06:34:45;;;;;;;9.43;6.73;;;;;;;7.49;76.04;98929.64;128046;1098;100915;-83
2021/05/07 06:37:32;;;;;;;11.68;7.23;;;;;;;7.52;76.22;98929.52;128063;1098;100728;-83
2021/05/07 06:40:20;;;;;;;8.65;6.30;;;;;;;7.52;76.05;98925.17;128068;1098;100689;-83
2021/05/07 06:43:08;;;;;;;8.23;6.00;;;;;;;7.53;75.59;98913.88;128044;1100;101990;-84
2021/05/07 06:45:55;;;;;;;9.57;6.33;;;;;;;7.57;75.88;98920.66;128235;1098;100719;-85
2021/05/07 06:48:42;;;;;;;8.30;5.13;;;;;;;7.61;75.40;98918.78;128081;1098;100766;-84
2021/05/07 06:51:29;;;;;;;6.68;4.15;;;;;;;7.63;75.98;98922.15;128253;1098;100785;-86
2021/05/07 06:54:16;;;;;;;7.58;5.10;;;;;;;7.64;75.33;98918.64;128062;1098;100762;-84
2021/05/07 06:57:03;;;;;;;7.57;5.20;;;;;;;7.68;75.24;98914.16;128067;1099;101427;-82
2021/05/07 06:59:50;;;;;;;;;;;;;;;7.75;75.66;98921.65;128055;1098;100893;-83
2021/05/07 07:02:37;;;;;;;7.47;4.93;;;;;;;7.76;75.69;98918.14;128116;1098;100730;-82
2021/05/07 07:05:23;;;;;;;9.10;6.07;;;;;;;7.76;75.55;98919.90;128026;1098;100830;-84
2021/05/07 07:08:10;;;;;;;10.17;7.60;;;;;;;7.80;75.74;98918.85;128059;1099;100815;-83
2021/05/07 07:10:58;;;;;;;16.07;10.33;;;;;;;7.83;75.99;98916.13;128047;1098;101878;-85
2021/05/07 07:13:45;;;;;;;14.90;10.87;;;;;;;7.84;75.57;98920.41;128100;1098;101083;-82
2021/05/07 07:16:32;;;;;;;18.03;10.80;;;;;;;7.84;75.63;98925.59;128082;1098;100824;-84
2021/05/07 07:19:19;;;;;;;15.68;12.10;;;;;;;7.82;74.92;98927.41;128222;1098;100822;-84
2021/05/07 07:22:21;;;;;;;12.30;10.93;;;;;;;7.76;75.23;98923.34;128118;1098;100728;-81
2021/05/07 07:25:10;;;;;;;14.80;11.03;;;;;;;7.76;75.05;98923.34;128063;1098;101567;-81
2021/05/07 07:28:04;;;;;;;14.07;10.97;;;;;;;7.72;74.45;98926.97;128207;1098;100863;-84
2021/05/07 07:30:51;;;;;;;13.60;10.50;;;;;;;7.65;74.80;98930.71;128048;1098;100757;-85
2021/05/07 07:33:38;;;;;;;17.80;12.57;;;;;;;7.58;74.53;98922.34;128045;1098;100947;-85
2021/05/07 07:36:27;;;;;;;18.57;14.73;;;;;;;7.57;74.93;98937.98;128258;1098;100672;-84
2021/05/07 07:39:16;;;;;;;15.53;11.03;;;;;;;7.51;74.29;98940.80;128046;1099;101556;-83
2021/05/07 07:42:04;;;;;;;17.80;11.57;;;;;;;7.46;74.63;98940.15;128034;1098;102106;-83
2021/05/07 07:44:51;;;;;;;15.40;9.93;;;;;;;7.44;74.97;98941.97;128078;1098;101127;-85
2021/05/07 07:47:39;;;;;;;12.97;9.80;;;;;;;7.43;74.74;98935.94;128049;1098;101055;-83
2021/05/07 07:50:26;;;;;;;12.40;9.33;;;;;;;7.49;74.48;98947.80;128060;1098;100753;-84
2021/05/07 07:53:13;;;;;;;13.63;9.23;;;;;;;7.54;74.55;98945.86;128070;1098;103002;-83
2021/05/07 07:55:59;;;;;;;13.17;9.80;;;;;;;7.62;74.52;98941.22;128210;1098;100220;-83
2021/05/07 07:58:46;;;;;;;11.18;9.08;;;;;;;7.65;73.97;98941.09;128031;1099;100816;-83
2021/05/07 08:01:33;;;;;;;12.00;8.80;;;;;;;7.71;73.79;98946.02;128218;1098;100802;-83
2021/05/07 08:04:20;;;;;;;11.63;7.87;;;;;;;7.75;74.06;98952.80;128047;1098;101138;-83
2021/05/07 08:07:07;;;;;;;11.67;7.47;;;;;;;7.75;73.59;98945.00;128037;1099;101368;-83
2021/05/07 08:09:54;;;;;;;9.00;6.77;;;;;;;7.78;73.70;98957.01;128008;1098;101011;-83
2021/05/07 08:12:41;;;;;;;11.58;7.73;;;;;;;7.82;73.80;98959.41;128240;1098;101133;-83
2021/05/07 08:15:28;;;;;;;9.50;6.23;;;;;;;7.83;73.33;98963.69;128052;1099;100744;-82
2021/05/07 08:18:15;;;;;;;11.13;7.03;;;;;;;7.85;72.67;98964.47;128063;1098;100852;-82
2021/05/07 08:21:02;;;;;;;11.40;7.20;;;;;;;7.89;72.77;98970.37;128051;1098;101575;-83
2021/05/07 08:23:50;;;;;;;14.10;8.03;;;;;;;7.92;72.48;98974.62;128002;1098;100916;-84
2021/05/07 08:26:36;;;;;;;10.25;7.05;;;;;;;7.92;72.50;98970.27;128111;1098;100708;-85
2021/05/07 08:29:24;;;;;;;12.50;7.28;;;;;;;7.99;72.38;98973.44;128226;1098;100911;-84
2021/05/07 08:32:11;;;;;;;11.07;6.40;;;;;;;8.09;72.77;98983.39;128027;1098;100778;-85
2021/05/07 08:34:58;;;;;;;8.03;5.68;;;;;;;8.24;72.66;98981.88;128059;1098;100887;-83
2021/05/07 08:37:45;;;;;;;8.10;5.60;;;;;;;8.33;72.40;98983.25;127984;1098;101150;-84
2021/05/07 08:40:31;;;;;;;7.20;5.43;;;;;;;8.31;71.75;98983.31;128262;1098;101140;-83
2021/05/07 08:43:18;;;;;;;6.87;4.63;;;;;;;8.33;72.22;98985.84;128241;1098;100734;-83
2021/05/07 08:46:06;;;;;;;7.75;5.63;;;;;;;8.46;71.99;98974.89;128060;1098;100805;-83
2021/05/07 08:48:55;;;;;;;6.03;4.90;;;;;;;8.50;71.37;98974.75;128066;1098;100687;-82
2021/05/07 08:51:42;;;;;;;6.40;4.73;;;;;;;8.48;71.43;98980.86;128026;1098;101023;-83
2021/05/07 08:54:28;;;;;;;8.23;5.60;;;;;;;8.54;71.58;98990.14;128050;1098;102542;-83
2021/05/07 08:57:17;;;;;;;9.97;7.37;;;;;;;8.60;71.43;98994.21;128247;1098;100994;-83
2021/05/07 09:00:09;;;;;;;10.13;5.47;;;;;;;8.64;71.03;98990.59;128061;1098;100791;-83
2021/05/07 09:03:16;;;;;;;7.57;5.10;;;;;;;8.68;70.95;98997.33;128061;1098;101801;-83
2021/05/07 09:06:20;;;;;;;5.90;4.50;;;;;;;8.66;70.08;98999.16;128167;1098;100869;-84
2021/05/07 09:09:16;;;;;;;6.10;3.87;;;;;;;8.60;70.48;99000.25;128253;1098;100758;-83
2021/05/07 09:12:04;;;;;;;4.50;3.07;;;;;;;8.61;69.86;98995.90;128034;1098;100702;-83
2021/05/07 09:14:50;;;;;;;3.98;2.70;;;;;;;8.64;69.54;99006.19;128056;1098;100653;-83
2021/05/07 09:17:45;;;;;;;5.00;2.27;;;;;;;8.69;69.64;99004.22;128039;1098;101622;-83
2021/05/07 09:20:43;;;;;;;3.83;2.58;;;;;;;8.73;68.82;99016.16;128041;1098;100816;-83
2021/05/07 09:23:38;;;;;;;5.65;2.53;;;;;;;8.75;69.35;99011.73;128261;1098;100773;-83
2021/05/07 09:26:25;;;;;;;5.47;3.37;;;;;;;8.80;68.91;99020.20;128216;1098;100787;-84
2021/05/07 09:29:19;;;;;;;3.60;2.90;;;;;;;8.87;68.77;99028.55;128244;1098;101000;-83
2021/05/07 09:32:05;;;;;;;6.70;4.60;;;;;;;8.93;68.45;99026.52;128033;1098;100750;-83
2021/05/07 09:34:52;;;;;;;6.20;4.27;;;;;;;9.01;68.50;99027.03;128165;1098;101082;-82
2021/05/07 09:37:41;;;;;;;4.30;2.60;;;;;;;9.14;68.40;99034.25;128022;1098;100688;-83
2021/05/07 09:40:28;;;;;;;3.27;2.60;;;;;;;9.25;68.10;99024.22;128026;1098;100881;-82
2021/05/07 09:43:23;;;;;;;5.07;3.27;;;;;;;9.37;67.82;99029.70;128048;1098;101078;-83
2021/05/07 09:46:09;;;;;;;3.83;3.00;;;;;;;9.37;67.33;99028.86;128023;1098;101990;-83
2021/05/07 09:48:56;;;;;;;3.20;2.75;;;;;;;9.40;67.23;99031.31;128019;1098;101101;-83
2021/05/07 09:51:46;;;;;;;4.73;2.90;;;;;;;9.46;67.02;99043.19;128286;1098;100690;-83
2021/05/07 09:54:38;;;;;;;5.97;3.90;;;;;;;9.50;67.08;99047.33;128052;1098;100855;-82
2021/05/07 09:57:25;;;;;;;3.93;2.87;;;;;;;9.55;66.73;99048.82;128032;1098;101068;-82
2021/05/07 10:00:13;;;;;;;3.77;2.80;;;;;;;9.61;66.30;99058.94;127975;1101;101457;-84
2021/05/07 10:03:00;;;;;;;;;;;;;;;9.69;66.87;99056.83;128261;1098;100621;-82
2021/05/07 10:05:47;;;;;;;3.23;2.30;;;;;;;9.78;66.18;99059.90;128182;1098;100916;-82
2021/05/07 10:08:44;;;;;;;4.73;2.70;;;;;;;9.85;65.90;99059.52;128038;1098;100826;-82
2021/05/07 10:11:41;;;;;;;4.97;3.03;;;;;;;9.86;65.43;99061.20;128019;1098;101012;-82
2021/05/07 10:14:30;;;;;;;3.63;2.70;;;;;;;9.89;65.27;99061.08;128146;1098;101563;-83
2021/05/07 10:17:18;;;;;;;3.73;2.87;;;;;;;9.90;65.30;99069.73;128196;1098;101170;-82
2021/05/07 10:20:06;;;;;;;;;;;;;;;9.96;65.34;99064.22;128071;1098;100813;-82
2021/05/07 10:22:53;;;;;;;3.37;2.60;;;;;;;10.01;65.45;99077.86;128033;1098;100821;-82
2021/05/07 10:25:39;;;;;;;3.60;2.70;;;;;;;10.14;65.21;99075.51;128031;1098;100769;-83
2021/05/07 10:28:28;;;;;;;3.55;2.70;;;;;;;10.22;64.64;99071.63;128037;1098;100837;-84
2021/05/07 10:31:16;;;;;;;2.43;2.13;;;;;;;10.21;64.43;99084.73;127990;1098;101030;-83
2021/05/07 10:34:06;;;;;;;4.07;2.77;;;;;;;10.23;64.30;99083.77;128038;1098;100823;-82
2021/05/07 10:37:14;;;;;;;3.63;2.77;;;;;;;10.33;64.06;99088.52;127993;1098;100843;-83
2021/05/07 10:40:02;;;;;;;4.40;2.67;;;;;;;10.38;63.69;99089.11;128027;1098;100808;-84
2021/05/07 10:42:58;;;;;;;4.15;2.60;;;;;;;10.43;63.78;99097.58;128032;1098;101810;-84
2021/05/07 10:45:51;;;;;;;3.75;2.25;;;;;;;10.50;63.05;99091.13;128027;1098;100759;-82
2021/05/07 10:48:37;;;;;;;3.00;2.23;;;;;;;10.64;62.85;99093.05;128063;1098;100804;-83
2021/05/07 10:51:25;;;;;;;3.57;2.43;;;;;;;10.85;62.50;99095.39;128037;1099;101051;-83
2021/05/07 10:54:14;;;;;;;2.43;2.20;;;;;;;11.10;62.57;99097.55;128034;1098;101085;-83
2021/05/07 10:57:01;;;;;;;3.53;2.17;;;;;;;11.27;62.25;99095.83;128217;1098;101859;-83
2021/05/07 10:59:55;;;;;;;3.90;2.25;;;;;;;11.40;62.06;99100.31;128026;1098;101051;-82
2021/05/07 11:02:47;;;;;;;3.33;2.40;;;;;;;11.45;61.53;99093.07;127936;1101;101452;-83
2021/05/07 11:05:46;;;;;;;4.33;2.30;;;;;;;11.55;61.43;99089.97;128019;1099;100700;-83
2021/05/07 11:08:33;;;;;;;3.00;2.30;;;;;;;11.63;60.84;99085.16;128041;1098;100736;-83
2021/05/07 11:11:19;;;;;;;3.08;2.40;;;;;;;11.61;60.84;99079.19;128055;1098;100796;-82
2021/05/07 11:14:12;;;;;;;3.47;2.40;;;;;;;11.56;60.53;99083.83;128185;1098;101614;-82
2021/05/07 11:16:59;;;;;;;3.13;2.60;;;;;;;11.47;60.79;99079.92;128237;1098;100681;-82
2021/05/07 11:19:47;;;;;;;4.58;2.80;;;;;;;11.38;60.67;99086.50;128253;1098;100781;-82
2021/05/07 11:22:35;;;;;;;3.37;2.60;;;;;;;11.26;60.32;99087.16;128049;1098;100616;-82
2021/05/07 11:25:23;;;;;;;4.37;2.47;;;;;;;11.14;60.26;99090.44;128083;1098;100800;-82
2021/05/07 11:28:14;;;;;;;3.73;2.90;;;;;;;10.97;60.10;99090.47;128000;1098;100860;-82
2021/05/07 11:31:00;;;;;;;5.10;3.10;;;;;;;10.79;59.96;99095.72;128053;1098;100811;-82
2021/05/07 11:33:47;;;;;;;6.00;3.35;;;;;;;10.64;60.55;99085.22;128056;1098;100801;-82
2021/05/07 11:36:34;;;;;;;5.63;3.30;;;;;;;10.58;61.01;99088.95;128272;1098;100801;-82
2021/05/07 11:39:20;;;;;;;5.03;3.83;;;;;;;10.54;61.29;99090.04;128134;1098;100737;-82
2021/05/07 11:42:08;;;;;;;2.77;2.40;;;;;;;10.62;61.09;99092.28;128035;1098;100777;-82
2021/05/07 11:44:54;;;;;;;4.10;3.03;;;;;;;10.85;61.25;99087.56;128272;1098;100694;-82
2021/05/07 11:47:41;;;;;;;6.37;3.70;;;;;;;11.29;61.36;99080.92;128046;1098;102631;-84
2021/05/07 11:50:28;;;;;;;7.03;3.70;;;;;;;11.91;61.29;99079.30;128027;1099;100973;-85
2021/05/07 11:53:21;;;;;;;6.50;3.53;;;;;;;12.47;60.24;99073.44;128049;1098;100854;-82
2021/05/07 11:56:25;;;;;;;6.00;3.20;;;;;;;13.00;59.14;99077.25;128061;1098;100818;-81
2021/05/07 11:59:20;;;;;;;5.47;3.40;;;;;;;13.40;57.81;99077.45;128044;1099;100815;-82
2021/05/07 12:02:07;;;;;;;5.40;3.53;;;;;;;13.61;56.86;99079.55;128257;1098;100713;-83
2021/05/07 12:04:55;;;;;;;4.95;3.00;;;;;;;13.71;56.32;99084.23;127981;1098;100728;-83
2021/05/07 12:07:47;;;;;;;3.60;2.63;;;;;;;13.64;55.79;99098.64;128138;1098;101897;-82
2021/05/07 12:10:35;;;;;;;2.63;2.00;;;;;;;13.45;55.59;99101.56;128090;1098;100731;-82
2021/05/07 12:13:24;;;;;;;3.77;2.40;;;;;;;13.25;55.24;99108.88;128172;1098;100869;-82
2021/05/07 12:16:10;;;;;;;;;;;;;;;13.02;54.94;99101.55;128246;1098;100743;-83
2021/05/07 12:18:57;;;;;;;2.63;1.70;;;;;;;12.76;54.77;99107.52;128080;1098;100868;-81
2021/05/07 12:21:45;;;;;;;2.13;1.80;;;;;;;12.46;54.56;99107.52;128034;1098;101966;-81
2021/05/07 12:24:31;;;;;;;;;;;;;;;12.20;54.91;99115.06;128032;1098;100846;-82
2021/05/07 12:27:29;;;;;;;1.93;1.70;;;;;;;12.08;55.45;99107.94;128053;1098;100915;-83
2021/05/07 12:30:27;;;;;;;2.77;1.93;;;;;;;11.98;55.29;99106.75;128232;1098;101115;-82
2021/05/07 12:33:24;;;;;;;1.97;1.50;;;;;;;11.75;55.44;99115.84;128066;1098;100688;-84
2021/05/07 12:36:16;;;;;;;1.50;1.37;;;;;;;11.65;55.79;99120.71;128245;1098;102276;-83
2021/05/07 12:39:11;;;;;;;1.30;1.20;;;;;;;11.58;55.78;99123.75;127969;1098;100764;-83
2021/05/07 12:41:59;;;;;;;2.17;1.40;;;;;;;11.49;55.79;99115.50;128208;1098;100883;-83
2021/05/07 12:44:46;;;;;;;2.73;1.90;;;;;;;11.46;56.25;99110.42;128039;1098;100852;-83
2021/05/07 12:47:32;;;;;;;2.15;1.70;;;;;;;11.41;56.12;99116.82;128038;1098;100739;-83
2021/05/07 12:50:19;;;;;;;3.30;2.00;;;;;;;11.34;56.41;99121.53;128244;1098;101505;-83
2021/05/07 12:53:18;;;;;;;4.67;3.63;;;;;;;11.31;56.49;99126.92;128198;1098;100843;-83
2021/05/07 12:56:05;;;;;;;3.40;2.70;;;;;;;11.22;56.57;99123.94;128080;1098;101030;-83
2021/05/07 12:58:52;;;;;;;;;;;;;;;11.27;56.91;99122.77;127967;1101;100801;-84